sensor_id;sensor_type;location;lat;lon;timestamp;temperature;humidity
60287;DHT22;46141;52.382;5.270;2023-07-22T00:02:22;22.70;65.40
60287;DHT22;46141;52.382;5.270;2023-07-22T00:04:49;22.70;65.40
60287;DHT22;46141;52.382;5.270;2023-07-22T00:07:14;22.70;65.50
60287;DHT22;46141;52.382;5.270;2023-07-22T00:09:41;22.70;65.50
60287;DHT22;46141;52.382;5.270;2023-07-22T00:12:07;22.70;65.40
60287;DHT22;46141;52.382;5.270;2023-07-22T00:14:35;22.70;65.50
60287;DHT22;46141;52.382;5.270;2023-07-22T00:17:01;22.70;65.70
60287;DHT22;46141;52.382;5.270;2023-07-22T00:19:27;22.70;65.70
60287;DHT22;46141;52.382;5.270;2023-07-22T00:21:52;22.70;65.70
60287;DHT22;46141;52.382;5.270;2023-07-22T00:24:18;22.60;65.70
60287;DHT22;46141;52.382;5.270;2023-07-22T00:26:44;22.60;65.80
60287;DHT22;46141;52.382;5.270;2023-07-22T00:29:09;22.60;65.80
60287;DHT22;46141;52.382;5.270;2023-07-22T00:31:35;22.60;65.90
60287;DHT22;46141;52.382;5.270;2023-07-22T00:34:01;22.60;65.90
60287;DHT22;46141;52.382;5.270;2023-07-22T00:36:26;22.60;65.90
60287;DHT22;46141;52.382;5.270;2023-07-22T00:38:52;22.60;65.90
60287;DHT22;46141;52.382;5.270;2023-07-22T00:41:19;22.60;65.90
60287;DHT22;46141;52.382;5.270;2023-07-22T00:43:44;22.60;65.90
60287;DHT22;46141;52.382;5.270;2023-07-22T00:46:10;22.60;65.90
60287;DHT22;46141;52.382;5.270;2023-07-22T00:48:38;22.60;65.90
60287;DHT22;46141;52.382;5.270;2023-07-22T00:51:04;22.60;65.90
60287;DHT22;46141;52.382;5.270;2023-07-22T00:53:30;22.60;66.00
60287;DHT22;46141;52.382;5.270;2023-07-22T00:55:56;22.60;66.00
60287;DHT22;46141;52.382;5.270;2023-07-22T00:58:23;22.50;66.00
60287;DHT22;46141;52.382;5.270;2023-07-22T01:00:48;22.50;66.00
60287;DHT22;46141;52.382;5.270;2023-07-22T01:03:14;22.50;66.10
60287;DHT22;46141;52.382;5.270;2023-07-22T01:05:40;22.50;66.00
60287;DHT22;46141;52.382;5.270;2023-07-22T01:08:07;22.50;66.00
60287;DHT22;46141;52.382;5.270;2023-07-22T01:10:33;22.50;66.10
60287;DHT22;46141;52.382;5.270;2023-07-22T01:12:58;22.50;66.10
60287;DHT22;46141;52.382;5.270;2023-07-22T01:15:24;22.50;66.10
60287;DHT22;46141;52.382;5.270;2023-07-22T01:17:51;22.50;66.00
60287;DHT22;46141;52.382;5.270;2023-07-22T01:20:19;22.50;66.10
60287;DHT22;46141;52.382;5.270;2023-07-22T01:22:52;22.50;66.10
60287;DHT22;46141;52.382;5.270;2023-07-22T01:25:20;22.50;66.10
60287;DHT22;46141;52.382;5.270;2023-07-22T01:27:47;22.50;66.10
60287;DHT22;46141;52.382;5.270;2023-07-22T01:30:13;22.50;66.20
60287;DHT22;46141;52.382;5.270;2023-07-22T01:32:39;22.50;66.20
60287;DHT22;46141;52.382;5.270;2023-07-22T01:35:06;22.40;66.20
60287;DHT22;46141;52.382;5.270;2023-07-22T01:37:33;22.50;66.20
60287;DHT22;46141;52.382;5.270;2023-07-22T01:40:00;22.40;66.20
60287;DHT22;46141;52.382;5.270;2023-07-22T01:42:29;22.40;66.20
60287;DHT22;46141;52.382;5.270;2023-07-22T01:44:54;22.40;66.20
60287;DHT22;46141;52.382;5.270;2023-07-22T01:47:21;22.50;66.30
60287;DHT22;46141;52.382;5.270;2023-07-22T01:49:47;22.40;66.20
60287;DHT22;46141;52.382;5.270;2023-07-22T01:52:13;22.40;66.20
60287;DHT22;46141;52.382;5.270;2023-07-22T01:54:38;22.40;66.20
60287;DHT22;46141;52.382;5.270;2023-07-22T01:57:04;22.40;66.20
60287;DHT22;46141;52.382;5.270;2023-07-22T01:59:32;22.40;66.20
60287;DHT22;46141;52.382;5.270;2023-07-22T02:01:59;22.40;66.20
60287;DHT22;46141;52.382;5.270;2023-07-22T02:04:26;22.40;66.20
60287;DHT22;46141;52.382;5.270;2023-07-22T02:06:53;22.40;66.20
60287;DHT22;46141;52.382;5.270;2023-07-22T02:09:19;22.40;66.30
60287;DHT22;46141;52.382;5.270;2023-07-22T02:11:47;22.40;66.30
60287;DHT22;46141;52.382;5.270;2023-07-22T02:14:13;22.40;66.30
60287;DHT22;46141;52.382;5.270;2023-07-22T02:16:42;22.30;66.30
60287;DHT22;46141;52.382;5.270;2023-07-22T02:19:09;22.30;66.30
60287;DHT22;46141;52.382;5.270;2023-07-22T02:21:35;22.40;66.40
60287;DHT22;46141;52.382;5.270;2023-07-22T02:24:02;22.30;66.40
60287;DHT22;46141;52.382;5.270;2023-07-22T02:26:28;22.30;66.30
60287;DHT22;46141;52.382;5.270;2023-07-22T02:28:55;22.30;66.30
60287;DHT22;46141;52.382;5.270;2023-07-22T02:31:21;22.30;66.40
60287;DHT22;46141;52.382;5.270;2023-07-22T02:33:48;22.30;66.40
60287;DHT22;46141;52.382;5.270;2023-07-22T02:36:14;22.30;66.30
60287;DHT22;46141;52.382;5.270;2023-07-22T02:38:40;22.30;66.40
60287;DHT22;46141;52.382;5.270;2023-07-22T02:41:07;22.30;66.40
60287;DHT22;46141;52.382;5.270;2023-07-22T02:43:34;22.30;66.40
60287;DHT22;46141;52.382;5.270;2023-07-22T02:46:03;22.30;66.50
60287;DHT22;46141;52.382;5.270;2023-07-22T02:48:30;22.30;66.50
60287;DHT22;46141;52.382;5.270;2023-07-22T02:51:08;22.30;66.60
60287;DHT22;46141;52.382;5.270;2023-07-22T02:53:35;22.30;66.30
60287;DHT22;46141;52.382;5.270;2023-07-22T02:56:07;22.30;66.50
60287;DHT22;46141;52.382;5.270;2023-07-22T02:58:33;22.30;66.80
60287;DHT22;46141;52.382;5.270;2023-07-22T03:00:59;22.30;66.80
60287;DHT22;46141;52.382;5.270;2023-07-22T03:03:27;22.30;66.70
60287;DHT22;46141;52.382;5.270;2023-07-22T03:05:54;22.30;66.60
60287;DHT22;46141;52.382;5.270;2023-07-22T03:08:20;22.30;66.70
60287;DHT22;46141;52.382;5.270;2023-07-22T03:10:46;22.30;67.40
60287;DHT22;46141;52.382;5.270;2023-07-22T03:13:18;22.30;66.80
60287;DHT22;46141;52.382;5.270;2023-07-22T03:15:45;22.30;67.00
60287;DHT22;46141;52.382;5.270;2023-07-22T03:18:11;22.30;66.90
60287;DHT22;46141;52.382;5.270;2023-07-22T03:20:39;22.20;67.00
60287;DHT22;46141;52.382;5.270;2023-07-22T03:23:08;22.20;67.00
60287;DHT22;46141;52.382;5.270;2023-07-22T03:25:36;22.30;67.00
60287;DHT22;46141;52.382;5.270;2023-07-22T03:28:05;22.30;66.80
60287;DHT22;46141;52.382;5.270;2023-07-22T03:30:35;22.20;66.90
60287;DHT22;46141;52.382;5.270;2023-07-22T03:33:01;22.30;66.90
60287;DHT22;46141;52.382;5.270;2023-07-22T03:35:30;22.30;66.90
60287;DHT22;46141;52.382;5.270;2023-07-22T03:37:59;22.30;67.00
60287;DHT22;46141;52.382;5.270;2023-07-22T03:40:26;22.20;67.10
60287;DHT22;46141;52.382;5.270;2023-07-22T03:42:57;22.20;67.10
60287;DHT22;46141;52.382;5.270;2023-07-22T03:45:24;22.20;67.20
60287;DHT22;46141;52.382;5.270;2023-07-22T03:48:01;22.20;67.10
60287;DHT22;46141;52.382;5.270;2023-07-22T03:50:27;22.20;67.10
60287;DHT22;46141;52.382;5.270;2023-07-22T03:52:53;22.20;67.20
60287;DHT22;46141;52.382;5.270;2023-07-22T03:55:21;22.20;67.30
60287;DHT22;46141;52.382;5.270;2023-07-22T03:57:47;22.20;67.40
60287;DHT22;46141;52.382;5.270;2023-07-22T04:00:13;22.20;67.50
60287;DHT22;46141;52.382;5.270;2023-07-22T04:02:39;22.20;67.60
60287;DHT22;46141;52.382;5.270;2023-07-22T04:05:06;22.20;67.60
60287;DHT22;46141;52.382;5.270;2023-07-22T04:07:33;22.20;67.50
60287;DHT22;46141;52.382;5.270;2023-07-22T04:10:03;22.20;67.30
60287;DHT22;46141;52.382;5.270;2023-07-22T04:12:40;22.20;67.20
60287;DHT22;46141;52.382;5.270;2023-07-22T04:15:06;22.20;67.40
60287;DHT22;46141;52.382;5.270;2023-07-22T04:17:34;22.20;67.10
60287;DHT22;46141;52.382;5.270;2023-07-22T04:20:00;22.20;67.30
60287;DHT22;46141;52.382;5.270;2023-07-22T04:22:26;22.20;67.30
60287;DHT22;46141;52.382;5.270;2023-07-22T04:24:51;22.20;67.20
60287;DHT22;46141;52.382;5.270;2023-07-22T04:27:17;22.20;67.10
60287;DHT22;46141;52.382;5.270;2023-07-22T04:29:43;22.20;67.10
60287;DHT22;46141;52.382;5.270;2023-07-22T04:32:10;22.20;67.20
60287;DHT22;46141;52.382;5.270;2023-07-22T04:34:35;22.20;67.50
60287;DHT22;46141;52.382;5.270;2023-07-22T04:37:01;22.20;67.30
60287;DHT22;46141;52.382;5.270;2023-07-22T04:39:27;22.20;67.50
60287;DHT22;46141;52.382;5.270;2023-07-22T04:41:53;22.30;67.40
60287;DHT22;46141;52.382;5.270;2023-07-22T04:44:19;22.20;67.60
60287;DHT22;46141;52.382;5.270;2023-07-22T04:46:45;22.20;67.50
60287;DHT22;46141;52.382;5.270;2023-07-22T04:49:13;22.20;67.30
60287;DHT22;46141;52.382;5.270;2023-07-22T04:51:45;22.20;67.60
60287;DHT22;46141;52.382;5.270;2023-07-22T04:54:12;22.20;67.70
60287;DHT22;46141;52.382;5.270;2023-07-22T04:56:40;22.20;67.70
60287;DHT22;46141;52.382;5.270;2023-07-22T04:59:07;22.20;67.90
60287;DHT22;46141;52.382;5.270;2023-07-22T05:01:35;22.20;67.80
60287;DHT22;46141;52.382;5.270;2023-07-22T05:04:22;22.20;67.90
60287;DHT22;46141;52.382;5.270;2023-07-22T05:06:52;22.20;68.00
60287;DHT22;46141;52.382;5.270;2023-07-22T05:09:18;22.20;68.20
60287;DHT22;46141;52.382;5.270;2023-07-22T05:11:43;22.20;68.40
60287;DHT22;46141;52.382;5.270;2023-07-22T05:14:09;22.20;68.70
60287;DHT22;46141;52.382;5.270;2023-07-22T05:16:34;22.20;68.70
60287;DHT22;46141;52.382;5.270;2023-07-22T05:19:00;22.10;69.00
60287;DHT22;46141;52.382;5.270;2023-07-22T05:21:26;22.10;68.80
60287;DHT22;46141;52.382;5.270;2023-07-22T05:23:51;22.10;68.80
60287;DHT22;46141;52.382;5.270;2023-07-22T05:26:17;22.10;69.00
60287;DHT22;46141;52.382;5.270;2023-07-22T05:28:42;22.10;68.90
60287;DHT22;46141;52.382;5.270;2023-07-22T05:31:08;22.10;68.90
60287;DHT22;46141;52.382;5.270;2023-07-22T05:33:34;22.10;68.90
60287;DHT22;46141;52.382;5.270;2023-07-22T05:36:00;22.10;68.80
60287;DHT22;46141;52.382;5.270;2023-07-22T05:38:25;22.10;68.80
60287;DHT22;46141;52.382;5.270;2023-07-22T05:40:54;22.10;68.80
60287;DHT22;46141;52.382;5.270;2023-07-22T05:43:21;22.10;68.80
60287;DHT22;46141;52.382;5.270;2023-07-22T05:45:46;22.10;68.80
60287;DHT22;46141;52.382;5.270;2023-07-22T05:48:12;22.00;68.80
60287;DHT22;46141;52.382;5.270;2023-07-22T05:50:38;22.00;68.80
60287;DHT22;46141;52.382;5.270;2023-07-22T05:53:03;22.00;68.90
60287;DHT22;46141;52.382;5.270;2023-07-22T05:55:29;22.00;68.90
60287;DHT22;46141;52.382;5.270;2023-07-22T05:57:54;22.00;68.90
60287;DHT22;46141;52.382;5.270;2023-07-22T06:00:20;22.00;68.80
60287;DHT22;46141;52.382;5.270;2023-07-22T06:02:46;22.00;68.90
60287;DHT22;46141;52.382;5.270;2023-07-22T06:05:12;22.00;68.90
60287;DHT22;46141;52.382;5.270;2023-07-22T06:07:37;22.00;68.80
60287;DHT22;46141;52.382;5.270;2023-07-22T06:10:03;22.00;68.80
60287;DHT22;46141;52.382;5.270;2023-07-22T06:12:29;22.00;68.90
60287;DHT22;46141;52.382;5.270;2023-07-22T06:14:54;22.00;68.90
60287;DHT22;46141;52.382;5.270;2023-07-22T06:17:20;22.00;68.80
60287;DHT22;46141;52.382;5.270;2023-07-22T06:19:46;22.00;68.70
60287;DHT22;46141;52.382;5.270;2023-07-22T06:22:11;22.00;68.70
60287;DHT22;46141;52.382;5.270;2023-07-22T06:24:37;22.10;68.70
60287;DHT22;46141;52.382;5.270;2023-07-22T06:27:03;22.10;68.60
60287;DHT22;46141;52.382;5.270;2023-07-22T06:29:29;22.10;68.60
60287;DHT22;46141;52.382;5.270;2023-07-22T06:31:54;22.10;68.70
60287;DHT22;46141;52.382;5.270;2023-07-22T06:34:20;22.10;68.70
60287;DHT22;46141;52.382;5.270;2023-07-22T06:36:46;22.10;68.50
60287;DHT22;46141;52.382;5.270;2023-07-22T06:39:12;22.10;68.40
60287;DHT22;46141;52.382;5.270;2023-07-22T06:41:38;22.10;68.30
60287;DHT22;46141;52.382;5.270;2023-07-22T06:44:03;22.10;68.20
60287;DHT22;46141;52.382;5.270;2023-07-22T06:46:29;22.10;68.20
60287;DHT22;46141;52.382;5.270;2023-07-22T06:48:55;22.20;68.40
60287;DHT22;46141;52.382;5.270;2023-07-22T06:51:20;22.20;68.30
60287;DHT22;46141;52.382;5.270;2023-07-22T06:53:46;22.10;68.30
60287;DHT22;46141;52.382;5.270;2023-07-22T06:56:11;22.10;68.30
60287;DHT22;46141;52.382;5.270;2023-07-22T06:58:37;22.10;68.30
60287;DHT22;46141;52.382;5.270;2023-07-22T07:01:03;22.20;68.40
60287;DHT22;46141;52.382;5.270;2023-07-22T07:03:28;22.10;68.40
60287;DHT22;46141;52.382;5.270;2023-07-22T07:05:58;22.20;68.40
60287;DHT22;46141;52.382;5.270;2023-07-22T07:08:24;22.20;68.40
60287;DHT22;46141;52.382;5.270;2023-07-22T07:10:51;22.20;68.30
60287;DHT22;46141;52.382;5.270;2023-07-22T07:13:16;22.20;68.40
60287;DHT22;46141;52.382;5.270;2023-07-22T07:15:47;22.20;68.90
60287;DHT22;46141;52.382;5.270;2023-07-22T07:18:15;22.20;68.30
60287;DHT22;46141;52.382;5.270;2023-07-22T07:20:41;22.20;68.30
60287;DHT22;46141;52.382;5.270;2023-07-22T07:23:07;22.20;68.30
60287;DHT22;46141;52.382;5.270;2023-07-22T07:25:33;22.20;68.30
60287;DHT22;46141;52.382;5.270;2023-07-22T07:27:58;22.20;68.30
60287;DHT22;46141;52.382;5.270;2023-07-22T07:30:24;22.20;68.30
60287;DHT22;46141;52.382;5.270;2023-07-22T07:32:50;22.20;68.30
60287;DHT22;46141;52.382;5.270;2023-07-22T07:35:15;22.20;68.30
60287;DHT22;46141;52.382;5.270;2023-07-22T07:37:41;22.20;68.30
60287;DHT22;46141;52.382;5.270;2023-07-22T07:40:07;22.20;68.30
60287;DHT22;46141;52.382;5.270;2023-07-22T07:42:33;22.20;68.30
60287;DHT22;46141;52.382;5.270;2023-07-22T07:44:59;22.20;68.90
60287;DHT22;46141;52.382;5.270;2023-07-22T07:47:25;22.20;68.30
60287;DHT22;46141;52.382;5.270;2023-07-22T07:49:50;22.20;68.20
60287;DHT22;46141;52.382;5.270;2023-07-22T07:52:16;22.20;68.20
60287;DHT22;46141;52.382;5.270;2023-07-22T07:54:42;22.20;68.20
60287;DHT22;46141;52.382;5.270;2023-07-22T07:57:07;22.20;68.20
60287;DHT22;46141;52.382;5.270;2023-07-22T07:59:33;22.20;68.30
60287;DHT22;46141;52.382;5.270;2023-07-22T08:01:59;22.30;68.30
60287;DHT22;46141;52.382;5.270;2023-07-22T08:04:24;22.20;68.20
60287;DHT22;46141;52.382;5.270;2023-07-22T08:06:50;22.30;68.20
60287;DHT22;46141;52.382;5.270;2023-07-22T08:09:16;22.30;68.30
60287;DHT22;46141;52.382;5.270;2023-07-22T08:11:44;22.30;68.30
60287;DHT22;46141;52.382;5.270;2023-07-22T08:14:10;22.30;68.20
60287;DHT22;46141;52.382;5.270;2023-07-22T08:16:36;22.30;68.30
60287;DHT22;46141;52.382;5.270;2023-07-22T08:19:02;22.30;68.20
60287;DHT22;46141;52.382;5.270;2023-07-22T08:21:28;22.30;68.80
60287;DHT22;46141;52.382;5.270;2023-07-22T08:23:53;22.30;68.20
60287;DHT22;46141;52.382;5.270;2023-07-22T08:26:19;22.30;68.10
60287;DHT22;46141;52.382;5.270;2023-07-22T08:28:47;22.40;68.30
60287;DHT22;46141;52.382;5.270;2023-07-22T08:31:13;22.40;68.20
60287;DHT22;46141;52.382;5.270;2023-07-22T08:33:39;22.30;68.10
60287;DHT22;46141;52.382;5.270;2023-07-22T08:36:05;22.30;68.10
60287;DHT22;46141;52.382;5.270;2023-07-22T08:38:31;22.30;68.20
60287;DHT22;46141;52.382;5.270;2023-07-22T08:40:57;22.30;68.10
60287;DHT22;46141;52.382;5.270;2023-07-22T08:43:23;22.40;68.20
60287;DHT22;46141;52.382;5.270;2023-07-22T08:45:52;22.40;68.10
60287;DHT22;46141;52.382;5.270;2023-07-22T08:48:18;22.40;68.10
60287;DHT22;46141;52.382;5.270;2023-07-22T08:50:59;22.40;68.00
60287;DHT22;46141;52.382;5.270;2023-07-22T08:53:26;22.40;68.10
60287;DHT22;46141;52.382;5.270;2023-07-22T08:55:53;22.40;67.90
60287;DHT22;46141;52.382;5.270;2023-07-22T08:58:20;22.40;67.90
60287;DHT22;46141;52.382;5.270;2023-07-22T09:00:48;22.50;67.90
60287;DHT22;46141;52.382;5.270;2023-07-22T09:03:14;22.50;67.80
60287;DHT22;46141;52.382;5.270;2023-07-22T09:05:40;22.50;67.80
60287;DHT22;46141;52.382;5.270;2023-07-22T09:08:08;22.50;67.80
60287;DHT22;46141;52.382;5.270;2023-07-22T09:10:34;22.50;67.70
60287;DHT22;46141;52.382;5.270;2023-07-22T09:13:01;22.50;67.70
60287;DHT22;46141;52.382;5.270;2023-07-22T09:15:28;22.50;67.70
60287;DHT22;46141;52.382;5.270;2023-07-22T09:17:54;22.50;67.70
60287;DHT22;46141;52.382;5.270;2023-07-22T09:20:21;22.50;67.70
60287;DHT22;46141;52.382;5.270;2023-07-22T09:22:48;22.50;67.70
60287;DHT22;46141;52.382;5.270;2023-07-22T09:25:25;22.50;67.70
60287;DHT22;46141;52.382;5.270;2023-07-22T09:27:54;22.50;67.80
60287;DHT22;46141;52.382;5.270;2023-07-22T09:30:26;22.50;67.80
60287;DHT22;46141;52.382;5.270;2023-07-22T09:32:57;22.50;68.00
60287;DHT22;46141;52.382;5.270;2023-07-22T09:35:26;22.50;68.00
60287;DHT22;46141;52.382;5.270;2023-07-22T09:37:53;22.50;68.10
60287;DHT22;46141;52.382;5.270;2023-07-22T09:40:21;22.50;68.00
60287;DHT22;46141;52.382;5.270;2023-07-22T09:42:56;22.50;68.10
60287;DHT22;46141;52.382;5.270;2023-07-22T09:45:23;22.50;68.20
60287;DHT22;46141;52.382;5.270;2023-07-22T09:47:50;22.50;68.20
60287;DHT22;46141;52.382;5.270;2023-07-22T09:50:19;22.50;68.20
60287;DHT22;46141;52.382;5.270;2023-07-22T09:52:47;22.50;68.30
60287;DHT22;46141;52.382;5.270;2023-07-22T09:55:18;22.50;68.30
60287;DHT22;46141;52.382;5.270;2023-07-22T09:57:52;22.50;68.30
60287;DHT22;46141;52.382;5.270;2023-07-22T10:00:18;22.50;68.40
60287;DHT22;46141;52.382;5.270;2023-07-22T10:02:48;22.50;68.40
60287;DHT22;46141;52.382;5.270;2023-07-22T10:05:21;22.50;68.40
60287;DHT22;46141;52.382;5.270;2023-07-22T10:07:57;22.50;68.40
60287;DHT22;46141;52.382;5.270;2023-07-22T10:10:33;22.50;68.40
60287;DHT22;46141;52.382;5.270;2023-07-22T10:12:59;22.50;68.50
60287;DHT22;46141;52.382;5.270;2023-07-22T10:15:28;22.50;68.60
60287;DHT22;46141;52.382;5.270;2023-07-22T10:17:56;22.50;68.60
60287;DHT22;46141;52.382;5.270;2023-07-22T10:20:23;22.50;68.60
60287;DHT22;46141;52.382;5.270;2023-07-22T10:22:50;22.50;68.60
60287;DHT22;46141;52.382;5.270;2023-07-22T10:25:18;22.50;68.50
60287;DHT22;46141;52.382;5.270;2023-07-22T10:27:44;22.50;68.60
60287;DHT22;46141;52.382;5.270;2023-07-22T10:30:12;22.50;68.60
60287;DHT22;46141;52.382;5.270;2023-07-22T10:32:43;22.50;68.60
60287;DHT22;46141;52.382;5.270;2023-07-22T10:40:55;22.50;68.70
60287;DHT22;46141;52.382;5.270;2023-07-22T10:43:39;22.50;68.70
60287;DHT22;46141;52.382;5.270;2023-07-22T10:46:09;22.50;68.90
60287;DHT22;46141;52.382;5.270;2023-07-22T10:48:39;22.50;68.80
60287;DHT22;46141;52.382;5.270;2023-07-22T10:51:12;22.50;68.80
60287;DHT22;46141;52.382;5.270;2023-07-22T10:53:44;22.40;68.80
60287;DHT22;46141;52.382;5.270;2023-07-22T11:06:52;22.40;69.30
60287;DHT22;46141;52.382;5.270;2023-07-22T11:11:55;22.40;69.40
60287;DHT22;46141;52.382;5.270;2023-07-22T11:14:26;22.40;69.30
60287;DHT22;46141;52.382;5.270;2023-07-22T11:16:51;22.40;69.40
60287;DHT22;46141;52.382;5.270;2023-07-22T11:19:19;22.30;69.30
60287;DHT22;46141;52.382;5.270;2023-07-22T11:21:46;22.40;69.40
60287;DHT22;46141;52.382;5.270;2023-07-22T11:24:13;22.30;69.30
60287;DHT22;46141;52.382;5.270;2023-07-22T11:26:40;22.30;69.30
60287;DHT22;46141;52.382;5.270;2023-07-22T11:29:09;22.30;69.30
60287;DHT22;46141;52.382;5.270;2023-07-22T11:31:39;22.40;69.40
60287;DHT22;46141;52.382;5.270;2023-07-22T11:34:10;22.40;69.30
60287;DHT22;46141;52.382;5.270;2023-07-22T11:36:36;22.40;69.10
60287;DHT22;46141;52.382;5.270;2023-07-22T11:39:10;22.40;69.00
60287;DHT22;46141;52.382;5.270;2023-07-22T11:41:37;22.40;69.00
60287;DHT22;46141;52.382;5.270;2023-07-22T11:44:05;22.40;68.80
60287;DHT22;46141;52.382;5.270;2023-07-22T11:49:32;22.50;68.70
60287;DHT22;46141;52.382;5.270;2023-07-22T11:52:04;22.50;68.70
60287;DHT22;46141;52.382;5.270;2023-07-22T11:54:31;22.50;68.60
60287;DHT22;46141;52.382;5.270;2023-07-22T11:57:20;22.60;68.60
60287;DHT22;46141;52.382;5.270;2023-07-22T11:59:51;22.60;69.10
60287;DHT22;46141;52.382;5.270;2023-07-22T12:02:21;22.60;68.50
60287;DHT22;46141;52.382;5.270;2023-07-22T12:05:04;22.60;68.30
60287;DHT22;46141;52.382;5.270;2023-07-22T12:07:32;22.60;68.30
60287;DHT22;46141;52.382;5.270;2023-07-22T12:10:01;22.60;68.30
60287;DHT22;46141;52.382;5.270;2023-07-22T12:12:41;22.60;68.20
60287;DHT22;46141;52.382;5.270;2023-07-22T12:15:12;22.70;68.20
60287;DHT22;46141;52.382;5.270;2023-07-22T12:17:58;22.70;68.10
60287;DHT22;46141;52.382;5.270;2023-07-22T12:20:26;22.70;68.00
60287;DHT22;46141;52.382;5.270;2023-07-22T12:22:53;22.70;68.00
60287;DHT22;46141;52.382;5.270;2023-07-22T12:25:18;22.80;67.90
60287;DHT22;46141;52.382;5.270;2023-07-22T12:27:45;22.80;67.90
60287;DHT22;46141;52.382;5.270;2023-07-22T12:30:11;22.80;67.90
60287;DHT22;46141;52.382;5.270;2023-07-22T12:32:37;22.80;68.10
60287;DHT22;46141;52.382;5.270;2023-07-22T12:35:03;22.70;68.10
60287;DHT22;46141;52.382;5.270;2023-07-22T12:37:29;22.80;68.10
60287;DHT22;46141;52.382;5.270;2023-07-22T12:39:56;22.80;68.00
60287;DHT22;46141;52.382;5.270;2023-07-22T12:42:22;22.80;68.00
60287;DHT22;46141;52.382;5.270;2023-07-22T12:44:47;22.80;68.00
60287;DHT22;46141;52.382;5.270;2023-07-22T12:47:13;22.80;68.00
60287;DHT22;46141;52.382;5.270;2023-07-22T12:49:38;22.80;68.10
60287;DHT22;46141;52.382;5.270;2023-07-22T12:52:05;22.80;68.00
60287;DHT22;46141;52.382;5.270;2023-07-22T12:54:34;22.80;68.70
60287;DHT22;46141;52.382;5.270;2023-07-22T12:57:01;22.80;68.00
60287;DHT22;46141;52.382;5.270;2023-07-22T12:59:26;22.80;68.00
60287;DHT22;46141;52.382;5.270;2023-07-22T13:01:52;22.80;68.10
60287;DHT22;46141;52.382;5.270;2023-07-22T13:04:19;22.80;68.00
60287;DHT22;46141;52.382;5.270;2023-07-22T13:06:44;22.80;68.10
60287;DHT22;46141;52.382;5.270;2023-07-22T13:09:10;22.80;68.00
60287;DHT22;46141;52.382;5.270;2023-07-22T13:11:36;22.80;68.10
60287;DHT22;46141;52.382;5.270;2023-07-22T13:14:02;22.80;68.00
60287;DHT22;46141;52.382;5.270;2023-07-22T13:16:28;22.80;68.00
60287;DHT22;46141;52.382;5.270;2023-07-22T13:18:54;22.80;67.90
60287;DHT22;46141;52.382;5.270;2023-07-22T13:21:20;22.80;68.00
60287;DHT22;46141;52.382;5.270;2023-07-22T13:23:45;22.80;68.00
60287;DHT22;46141;52.382;5.270;2023-07-22T13:26:11;22.80;68.00
60287;DHT22;46141;52.382;5.270;2023-07-22T13:28:36;22.80;68.00
60287;DHT22;46141;52.382;5.270;2023-07-22T13:31:02;22.80;68.00
60287;DHT22;46141;52.382;5.270;2023-07-22T13:33:28;22.80;68.00
60287;DHT22;46141;52.382;5.270;2023-07-22T13:35:53;22.90;68.00
60287;DHT22;46141;52.382;5.270;2023-07-22T13:38:19;22.90;68.10
60287;DHT22;46141;52.382;5.270;2023-07-22T13:40:45;22.80;67.90
60287;DHT22;46141;52.382;5.270;2023-07-22T13:43:11;22.90;67.90
60287;DHT22;46141;52.382;5.270;2023-07-22T13:45:37;22.80;67.90
60287;DHT22;46141;52.382;5.270;2023-07-22T13:48:03;22.90;68.00
60287;DHT22;46141;52.382;5.270;2023-07-22T13:50:28;22.80;67.80
60287;DHT22;46141;52.382;5.270;2023-07-22T13:52:54;22.80;67.90
60287;DHT22;46141;52.382;5.270;2023-07-22T13:55:20;22.80;67.90
60287;DHT22;46141;52.382;5.270;2023-07-22T13:57:45;22.80;67.90
60287;DHT22;46141;52.382;5.270;2023-07-22T14:00:11;22.80;68.00
60287;DHT22;46141;52.382;5.270;2023-07-22T14:02:38;22.80;68.00
60287;DHT22;46141;52.382;5.270;2023-07-22T14:05:04;22.80;68.00
60287;DHT22;46141;52.382;5.270;2023-07-22T14:07:30;22.80;68.60
60287;DHT22;46141;52.382;5.270;2023-07-22T14:09:55;22.80;68.10
60287;DHT22;46141;52.382;5.270;2023-07-22T14:12:21;22.80;68.10
60287;DHT22;46141;52.382;5.270;2023-07-22T14:14:47;22.80;68.10
60287;DHT22;46141;52.382;5.270;2023-07-22T14:17:12;22.80;68.20
60287;DHT22;46141;52.382;5.270;2023-07-22T14:19:38;22.80;68.10
60287;DHT22;46141;52.382;5.270;2023-07-22T14:22:05;22.80;68.00
60287;DHT22;46141;52.382;5.270;2023-07-22T14:24:31;22.80;67.90
60287;DHT22;46141;52.382;5.270;2023-07-22T14:26:56;22.80;67.90
60287;DHT22;46141;52.382;5.270;2023-07-22T14:29:22;22.90;67.90
60287;DHT22;46141;52.382;5.270;2023-07-22T14:31:48;22.80;67.80
60287;DHT22;46141;52.382;5.270;2023-07-22T14:34:13;22.80;67.80
60287;DHT22;46141;52.382;5.270;2023-07-22T14:36:39;22.90;67.80
60287;DHT22;46141;52.382;5.270;2023-07-22T14:39:05;22.80;67.70
60287;DHT22;46141;52.382;5.270;2023-07-22T14:41:31;22.90;67.80
60287;DHT22;46141;52.382;5.270;2023-07-22T14:43:56;22.90;67.90
60287;DHT22;46141;52.382;5.270;2023-07-22T14:46:22;22.90;67.90
60287;DHT22;46141;52.382;5.270;2023-07-22T14:48:48;22.90;67.80
60287;DHT22;46141;52.382;5.270;2023-07-22T14:51:14;22.90;67.80
60287;DHT22;46141;52.382;5.270;2023-07-22T14:53:40;22.80;67.80
60287;DHT22;46141;52.382;5.270;2023-07-22T14:56:05;22.80;67.80
60287;DHT22;46141;52.382;5.270;2023-07-22T14:58:34;22.90;67.80
60287;DHT22;46141;52.382;5.270;2023-07-22T15:01:00;22.90;67.80
60287;DHT22;46141;52.382;5.270;2023-07-22T15:03:26;22.90;67.90
60287;DHT22;46141;52.382;5.270;2023-07-22T15:05:52;22.90;67.90
60287;DHT22;46141;52.382;5.270;2023-07-22T15:08:17;22.90;67.90
60287;DHT22;46141;52.382;5.270;2023-07-22T15:10:43;22.90;68.10
60287;DHT22;46141;52.382;5.270;2023-07-22T15:13:09;22.90;67.90
60287;DHT22;46141;52.382;5.270;2023-07-22T15:15:34;22.80;68.00
60287;DHT22;46141;52.382;5.270;2023-07-22T15:18:00;22.90;68.00
60287;DHT22;46141;52.382;5.270;2023-07-22T15:20:26;22.80;68.00
60287;DHT22;46141;52.382;5.270;2023-07-22T15:22:52;22.80;68.00
60287;DHT22;46141;52.382;5.270;2023-07-22T15:25:18;22.80;68.00
60287;DHT22;46141;52.382;5.270;2023-07-22T15:27:43;22.80;68.10
60287;DHT22;46141;52.382;5.270;2023-07-22T15:30:09;22.80;68.10
60287;DHT22;46141;52.382;5.270;2023-07-22T15:32:36;22.80;68.10
60287;DHT22;46141;52.382;5.270;2023-07-22T15:35:01;22.80;68.10
60287;DHT22;46141;52.382;5.270;2023-07-22T15:37:27;22.80;68.10
60287;DHT22;46141;52.382;5.270;2023-07-22T15:39:53;22.80;68.20
60287;DHT22;46141;52.382;5.270;2023-07-22T15:42:18;22.80;68.20
60287;DHT22;46141;52.382;5.270;2023-07-22T15:44:44;22.80;68.20
60287;DHT22;46141;52.382;5.270;2023-07-22T15:47:10;22.80;68.30
60287;DHT22;46141;52.382;5.270;2023-07-22T15:49:35;22.80;68.30
60287;DHT22;46141;52.382;5.270;2023-07-22T15:52:01;22.70;68.30